In Rescue
 
Open Full Screen Window  High Contrast Mode
Wind Gusting 00 knots
04
May 25, 2022 9:35 PM CDT
Weather Information
Wind Direction
  130 °
Wind Speed
  04 kt (5 mph)
Wind Gust
  00 kt (0 mph)
Altimeter
29.94 in
Visibility
10 SM
Temperature
12° C
54° F
Dewpoint
06° C
43° F
Humidity
67%
1hr Rain Fall
00.00 in.
24hr Rain Fall
00.00 in.
Sky Condition
Clear
VFR

METAR KJKJ 260235Z AUTO 13004KT 10SM CLR 12/06 A2994 RMK AO2

FAA Disclaimer: The data displayed is for advisory purposes only and is not to be used for flight planning or operations.